sensor_id;sensor_type;location;lat;lon;timestamp;temperature;humidity
26745;DHT22;14342;50.960;13.880;2022-08-03T00:00:02;23.50;85.20
26745;DHT22;14342;50.960;13.880;2022-08-03T00:01:04;23.40;85.80
26745;DHT22;14342;50.960;13.880;2022-08-03T00:02:05;23.60;86.80
26745;DHT22;14342;50.960;13.880;2022-08-03T00:03:07;23.30;86.60
26745;DHT22;14342;50.960;13.880;2022-08-03T00:04:08;23.50;86.50
26745;DHT22;14342;50.960;13.880;2022-08-03T00:05:11;23.30;86.60
26745;DHT22;14342;50.960;13.880;2022-08-03T00:06:11;23.30;87.40
26745;DHT22;14342;50.960;13.880;2022-08-03T00:07:13;23.20;87.70
26745;DHT22;14342;50.960;13.880;2022-08-03T00:08:14;23.20;88.10
26745;DHT22;14342;50.960;13.880;2022-08-03T00:09:15;23.20;88.10
26745;DHT22;14342;50.960;13.880;2022-08-03T00:10:16;23.20;88.20
26745;DHT22;14342;50.960;13.880;2022-08-03T00:11:17;23.10;88.40
26745;DHT22;14342;50.960;13.880;2022-08-03T00:12:18;23.10;88.40
26745;DHT22;14342;50.960;13.880;2022-08-03T00:13:19;23.10;88.80
26745;DHT22;14342;50.960;13.880;2022-08-03T00:14:20;23.00;89.60
26745;DHT22;14342;50.960;13.880;2022-08-03T00:15:22;23.00;90.00
26745;DHT22;14342;50.960;13.880;2022-08-03T00:16:22;23.00;90.10
26745;DHT22;14342;50.960;13.880;2022-08-03T00:17:25;23.00;90.10
26745;DHT22;14342;50.960;13.880;2022-08-03T00:18:26;23.00;90.10
26745;DHT22;14342;50.960;13.880;2022-08-03T00:19:27;22.90;90.10
26745;DHT22;14342;50.960;13.880;2022-08-03T00:20:29;22.90;90.30
26745;DHT22;14342;50.960;13.880;2022-08-03T00:21:31;22.90;90.30
26745;DHT22;14342;50.960;13.880;2022-08-03T00:22:33;22.90;90.70
26745;DHT22;14342;50.960;13.880;2022-08-03T00:23:34;22.90;91.00
26745;DHT22;14342;50.960;13.880;2022-08-03T00:24:35;22.90;91.10
26745;DHT22;14342;50.960;13.880;2022-08-03T00:25:37;22.80;91.30
26745;DHT22;14342;50.960;13.880;2022-08-03T00:26:38;22.80;91.40
26745;DHT22;14342;50.960;13.880;2022-08-03T00:27:39;22.80;91.80
26745;DHT22;14342;50.960;13.880;2022-08-03T00:28:40;22.80;92.00
26745;DHT22;14342;50.960;13.880;2022-08-03T00:29:41;22.80;91.40
26745;DHT22;14342;50.960;13.880;2022-08-03T00:30:42;22.50;90.70
26745;DHT22;14342;50.960;13.880;2022-08-03T00:31:43;22.80;91.10
26745;DHT22;14342;50.960;13.880;2022-08-03T00:32:44;22.70;91.50
26745;DHT22;14342;50.960;13.880;2022-08-03T00:33:46;22.70;91.50
26745;DHT22;14342;50.960;13.880;2022-08-03T00:34:46;22.70;92.00
26745;DHT22;14342;50.960;13.880;2022-08-03T00:35:50;22.70;92.40
26745;DHT22;14342;50.960;13.880;2022-08-03T00:36:51;22.60;92.50
26745;DHT22;14342;50.960;13.880;2022-08-03T00:37:52;22.60;92.30
26745;DHT22;14342;50.960;13.880;2022-08-03T00:38:53;22.60;92.40
26745;DHT22;14342;50.960;13.880;2022-08-03T00:39:54;22.50;92.60
26745;DHT22;14342;50.960;13.880;2022-08-03T00:40:56;22.50;92.50
26745;DHT22;14342;50.960;13.880;2022-08-03T00:41:56;22.50;92.50
26745;DHT22;14342;50.960;13.880;2022-08-03T00:43:02;22.50;92.50
26745;DHT22;14342;50.960;13.880;2022-08-03T00:44:03;22.50;92.90
26745;DHT22;14342;50.960;13.880;2022-08-03T00:45:05;22.50;92.70
26745;DHT22;14342;50.960;13.880;2022-08-03T00:46:06;22.50;92.20
26745;DHT22;14342;50.960;13.880;2022-08-03T00:47:07;22.40;92.40
26745;DHT22;14342;50.960;13.880;2022-08-03T00:48:10;22.40;92.60
26745;DHT22;14342;50.960;13.880;2022-08-03T00:49:12;22.40;92.60
26745;DHT22;14342;50.960;13.880;2022-08-03T00:50:13;22.40;92.70
26745;DHT22;14342;50.960;13.880;2022-08-03T00:51:16;22.30;92.90
26745;DHT22;14342;50.960;13.880;2022-08-03T00:52:17;22.70;93.50
26745;DHT22;14342;50.960;13.880;2022-08-03T00:53:18;22.30;93.80
26745;DHT22;14342;50.960;13.880;2022-08-03T00:54:19;22.30;93.90
26745;DHT22;14342;50.960;13.880;2022-08-03T00:55:21;22.30;93.60
26745;DHT22;14342;50.960;13.880;2022-08-03T00:56:22;22.30;93.40
26745;DHT22;14342;50.960;13.880;2022-08-03T00:57:23;22.20;93.50
26745;DHT22;14342;50.960;13.880;2022-08-03T00:58:24;22.30;93.80
26745;DHT22;14342;50.960;13.880;2022-08-03T00:59:26;22.20;94.00
26745;DHT22;14342;50.960;13.880;2022-08-03T01:00:27;22.20;93.90
26745;DHT22;14342;50.960;13.880;2022-08-03T01:01:28;22.20;94.00
26745;DHT22;14342;50.960;13.880;2022-08-03T01:02:29;22.20;94.10
26745;DHT22;14342;50.960;13.880;2022-08-03T01:03:30;22.20;94.40
26745;DHT22;14342;50.960;13.880;2022-08-03T01:04:31;22.20;94.90
26745;DHT22;14342;50.960;13.880;2022-08-03T01:05:34;22.10;95.10
26745;DHT22;14342;50.960;13.880;2022-08-03T01:06:40;22.10;95.50
26745;DHT22;14342;50.960;13.880;2022-08-03T01:07:46;22.10;95.50
26745;DHT22;14342;50.960;13.880;2022-08-03T01:08:51;22.10;95.90
26745;DHT22;14342;50.960;13.880;2022-08-03T01:09:56;22.10;96.20
26745;DHT22;14342;50.960;13.880;2022-08-03T01:11:01;22.00;96.70
26745;DHT22;14342;50.960;13.880;2022-08-03T01:12:07;22.10;96.90
26745;DHT22;14342;50.960;13.880;2022-08-03T01:13:14;22.00;97.00
26745;DHT22;14342;50.960;13.880;2022-08-03T01:14:20;22.00;96.70
26745;DHT22;14342;50.960;13.880;2022-08-03T01:15:24;22.00;96.80
26745;DHT22;14342;50.960;13.880;2022-08-03T01:16:29;22.00;96.60
26745;DHT22;14342;50.960;13.880;2022-08-03T01:17:33;22.00;96.70
26745;DHT22;14342;50.960;13.880;2022-08-03T01:18:37;22.00;96.70
26745;DHT22;14342;50.960;13.880;2022-08-03T01:19:44;22.00;97.20
26745;DHT22;14342;50.960;13.880;2022-08-03T01:20:46;22.00;97.50
26745;DHT22;14342;50.960;13.880;2022-08-03T01:21:51;22.00;97.50
26745;DHT22;14342;50.960;13.880;2022-08-03T01:22:59;21.90;97.30
26745;DHT22;14342;50.960;13.880;2022-08-03T01:24:03;21.90;97.10
26745;DHT22;14342;50.960;13.880;2022-08-03T01:25:05;21.90;97.00
26745;DHT22;14342;50.960;13.880;2022-08-03T01:26:12;21.90;97.10
26745;DHT22;14342;50.960;13.880;2022-08-03T01:27:22;21.90;97.40
26745;DHT22;14342;50.960;13.880;2022-08-03T01:28:32;21.80;97.90
26745;DHT22;14342;50.960;13.880;2022-08-03T01:29:48;21.80;98.20
26745;DHT22;14342;50.960;13.880;2022-08-03T01:30:51;21.90;98.20
26745;DHT22;14342;50.960;13.880;2022-08-03T01:31:56;21.80;98.00
26745;DHT22;14342;50.960;13.880;2022-08-03T01:32:59;21.80;98.40
26745;DHT22;14342;50.960;13.880;2022-08-03T01:34:01;21.80;98.90
26745;DHT22;14342;50.960;13.880;2022-08-03T01:35:05;21.80;99.30
26745;DHT22;14342;50.960;13.880;2022-08-03T01:36:08;21.80;99.70
26745;DHT22;14342;50.960;13.880;2022-08-03T01:37:12;21.80;99.90
26745;DHT22;14342;50.960;13.880;2022-08-03T01:38:17;21.80;99.90
26745;DHT22;14342;50.960;13.880;2022-08-03T01:39:21;21.80;99.90
26745;DHT22;14342;50.960;13.880;2022-08-03T01:40:23;21.80;99.90
26745;DHT22;14342;50.960;13.880;2022-08-03T01:41:32;21.80;99.90
26745;DHT22;14342;50.960;13.880;2022-08-03T01:42:33;21.70;99.90
26745;DHT22;14342;50.960;13.880;2022-08-03T01:43:35;21.70;99.90
26745;DHT22;14342;50.960;13.880;2022-08-03T01:44:39;21.80;99.90
26745;DHT22;14342;50.960;13.880;2022-08-03T01:45:41;21.70;99.90
26745;DHT22;14342;50.960;13.880;2022-08-03T01:46:43;21.80;99.90
26745;DHT22;14342;50.960;13.880;2022-08-03T01:47:48;21.70;99.90
26745;DHT22;14342;50.960;13.880;2022-08-03T01:48:50;21.70;99.90
26745;DHT22;14342;50.960;13.880;2022-08-03T01:49:51;21.70;99.90
26745;DHT22;14342;50.960;13.880;2022-08-03T01:50:53;21.70;99.90
26745;DHT22;14342;50.960;13.880;2022-08-03T01:51:55;21.70;99.90
26745;DHT22;14342;50.960;13.880;2022-08-03T01:52:57;21.70;99.90
26745;DHT22;14342;50.960;13.880;2022-08-03T01:53:58;21.70;99.90
26745;DHT22;14342;50.960;13.880;2022-08-03T01:55:00;21.90;99.90
26745;DHT22;14342;50.960;13.880;2022-08-03T01:56:02;21.70;99.90
26745;DHT22;14342;50.960;13.880;2022-08-03T01:57:04;21.60;99.90
26745;DHT22;14342;50.960;13.880;2022-08-03T01:58:06;21.60;99.90
26745;DHT22;14342;50.960;13.880;2022-08-03T01:59:07;21.60;99.90
26745;DHT22;14342;50.960;13.880;2022-08-03T02:00:09;21.60;99.90
26745;DHT22;14342;50.960;13.880;2022-08-03T02:01:12;21.60;99.90
26745;DHT22;14342;50.960;13.880;2022-08-03T02:02:15;21.60;99.90
26745;DHT22;14342;50.960;13.880;2022-08-03T02:03:17;21.60;99.90
26745;DHT22;14342;50.960;13.880;2022-08-03T02:04:19;21.50;99.90
26745;DHT22;14342;50.960;13.880;2022-08-03T02:05:22;21.50;99.60
26745;DHT22;14342;50.960;13.880;2022-08-03T02:06:23;21.50;99.70
26745;DHT22;14342;50.960;13.880;2022-08-03T02:07:25;21.50;99.90
26745;DHT22;14342;50.960;13.880;2022-08-03T02:08:27;21.40;99.90
26745;DHT22;14342;50.960;13.880;2022-08-03T02:09:29;21.60;99.90
26745;DHT22;14342;50.960;13.880;2022-08-03T02:10:30;21.40;99.90
26745;DHT22;14342;50.960;13.880;2022-08-03T02:11:33;21.30;99.90
26745;DHT22;14342;50.960;13.880;2022-08-03T02:12:35;21.30;99.90
26745;DHT22;14342;50.960;13.880;2022-08-03T02:13:37;21.30;99.90
26745;DHT22;14342;50.960;13.880;2022-08-03T02:14:38;21.30;99.90
26745;DHT22;14342;50.960;13.880;2022-08-03T02:15:41;21.30;99.90
26745;DHT22;14342;50.960;13.880;2022-08-03T02:16:43;21.30;99.90
26745;DHT22;14342;50.960;13.880;2022-08-03T02:17:46;21.20;99.90
26745;DHT22;14342;50.960;13.880;2022-08-03T02:18:47;21.20;99.90
26745;DHT22;14342;50.960;13.880;2022-08-03T02:19:49;21.30;99.90
26745;DHT22;14342;50.960;13.880;2022-08-03T02:20:50;21.20;99.90
26745;DHT22;14342;50.960;13.880;2022-08-03T02:21:52;21.20;99.90
26745;DHT22;14342;50.960;13.880;2022-08-03T02:22:53;21.20;99.90
26745;DHT22;14342;50.960;13.880;2022-08-03T02:23:55;21.20;99.90
26745;DHT22;14342;50.960;13.880;2022-08-03T02:24:56;21.10;99.90
26745;DHT22;14342;50.960;13.880;2022-08-03T02:25:59;21.10;99.90
26745;DHT22;14342;50.960;13.880;2022-08-03T02:27:01;21.10;99.90
26745;DHT22;14342;50.960;13.880;2022-08-03T02:28:05;21.00;99.90
26745;DHT22;14342;50.960;13.880;2022-08-03T02:29:10;21.00;99.90
26745;DHT22;14342;50.960;13.880;2022-08-03T02:30:12;21.00;99.90
26745;DHT22;14342;50.960;13.880;2022-08-03T02:31:14;21.00;99.90
26745;DHT22;14342;50.960;13.880;2022-08-03T02:32:19;21.00;99.90
26745;DHT22;14342;50.960;13.880;2022-08-03T02:33:23;21.00;99.90
26745;DHT22;14342;50.960;13.880;2022-08-03T02:34:25;21.00;99.90
26745;DHT22;14342;50.960;13.880;2022-08-03T02:35:27;21.30;99.90
26745;DHT22;14342;50.960;13.880;2022-08-03T02:36:30;20.90;99.90
26745;DHT22;14342;50.960;13.880;2022-08-03T02:37:33;20.90;99.90
26745;DHT22;14342;50.960;13.880;2022-08-03T02:38:35;20.90;99.90
26745;DHT22;14342;50.960;13.880;2022-08-03T02:39:38;20.90;99.90
26745;DHT22;14342;50.960;13.880;2022-08-03T02:40:40;20.90;99.90
26745;DHT22;14342;50.960;13.880;2022-08-03T02:41:44;20.90;99.90
26745;DHT22;14342;50.960;13.880;2022-08-03T02:42:46;20.90;99.90
26745;DHT22;14342;50.960;13.880;2022-08-03T02:43:49;20.90;99.90
26745;DHT22;14342;50.960;13.880;2022-08-03T02:44:52;20.90;99.90
26745;DHT22;14342;50.960;13.880;2022-08-03T02:45:53;20.90;99.90
26745;DHT22;14342;50.960;13.880;2022-08-03T02:46:55;20.90;99.90
26745;DHT22;14342;50.960;13.880;2022-08-03T02:47:58;20.80;99.90
26745;DHT22;14342;50.960;13.880;2022-08-03T02:49:02;20.80;99.90
26745;DHT22;14342;50.960;13.880;2022-08-03T02:50:04;20.80;99.90
26745;DHT22;14342;50.960;13.880;2022-08-03T02:51:05;20.80;99.90
26745;DHT22;14342;50.960;13.880;2022-08-03T02:52:08;20.80;99.90
26745;DHT22;14342;50.960;13.880;2022-08-03T02:53:09;20.70;99.90
26745;DHT22;14342;50.960;13.880;2022-08-03T02:54:12;20.70;99.90
26745;DHT22;14342;50.960;13.880;2022-08-03T02:55:14;20.70;99.90
26745;DHT22;14342;50.960;13.880;2022-08-03T02:56:16;20.70;99.90
26745;DHT22;14342;50.960;13.880;2022-08-03T02:57:18;20.70;99.90
26745;DHT22;14342;50.960;13.880;2022-08-03T02:58:20;20.70;99.90
26745;DHT22;14342;50.960;13.880;2022-08-03T02:59:22;20.70;99.90
26745;DHT22;14342;50.960;13.880;2022-08-03T03:00:25;20.70;99.90
26745;DHT22;14342;50.960;13.880;2022-08-03T03:01:26;20.70;99.90
26745;DHT22;14342;50.960;13.880;2022-08-03T03:02:27;20.70;99.90
26745;DHT22;14342;50.960;13.880;2022-08-03T03:03:29;20.70;99.90
26745;DHT22;14342;50.960;13.880;2022-08-03T03:04:31;20.70;99.90
26745;DHT22;14342;50.960;13.880;2022-08-03T03:05:32;20.60;99.90
26745;DHT22;14342;50.960;13.880;2022-08-03T03:06:34;20.60;99.90
26745;DHT22;14342;50.960;13.880;2022-08-03T03:07:35;20.60;99.90
26745;DHT22;14342;50.960;13.880;2022-08-03T03:08:37;20.60;99.90
26745;DHT22;14342;50.960;13.880;2022-08-03T03:09:38;20.60;99.90
26745;DHT22;14342;50.960;13.880;2022-08-03T03:10:40;20.60;99.90
26745;DHT22;14342;50.960;13.880;2022-08-03T03:11:41;20.60;99.90
26745;DHT22;14342;50.960;13.880;2022-08-03T03:12:43;20.50;99.90
26745;DHT22;14342;50.960;13.880;2022-08-03T03:13:44;20.50;99.90
26745;DHT22;14342;50.960;13.880;2022-08-03T03:14:46;20.50;99.90
26745;DHT22;14342;50.960;13.880;2022-08-03T03:15:47;20.50;99.90
26745;DHT22;14342;50.960;13.880;2022-08-03T03:16:49;20.50;99.90
26745;DHT22;14342;50.960;13.880;2022-08-03T03:17:50;20.50;99.90
26745;DHT22;14342;50.960;13.880;2022-08-03T03:18:54;20.50;99.90
26745;DHT22;14342;50.960;13.880;2022-08-03T03:19:55;20.60;99.90
26745;DHT22;14342;50.960;13.880;2022-08-03T03:20:58;20.50;99.90
26745;DHT22;14342;50.960;13.880;2022-08-03T03:22:00;20.40;99.90
26745;DHT22;14342;50.960;13.880;2022-08-03T03:23:02;20.10;99.90
26745;DHT22;14342;50.960;13.880;2022-08-03T03:24:03;20.40;99.90
26745;DHT22;14342;50.960;13.880;2022-08-03T03:25:06;20.40;99.90
26745;DHT22;14342;50.960;13.880;2022-08-03T03:26:07;20.40;99.90
26745;DHT22;14342;50.960;13.880;2022-08-03T03:27:09;20.40;99.90
26745;DHT22;14342;50.960;13.880;2022-08-03T03:28:09;20.40;99.90
26745;DHT22;14342;50.960;13.880;2022-08-03T03:29:11;20.40;99.90
26745;DHT22;14342;50.960;13.880;2022-08-03T03:30:13;20.40;99.90
26745;DHT22;14342;50.960;13.880;2022-08-03T03:31:13;20.40;99.90
26745;DHT22;14342;50.960;13.880;2022-08-03T03:32:15;20.40;99.90
26745;DHT22;14342;50.960;13.880;2022-08-03T03:33:16;20.40;99.90
26745;DHT22;14342;50.960;13.880;2022-08-03T03:34:19;20.40;99.90
26745;DHT22;14342;50.960;13.880;2022-08-03T03:35:21;20.40;99.90
26745;DHT22;14342;50.960;13.880;2022-08-03T03:36:21;20.40;99.90
26745;DHT22;14342;50.960;13.880;2022-08-03T03:37:23;20.40;99.90
26745;DHT22;14342;50.960;13.880;2022-08-03T03:38:24;20.40;99.90
26745;DHT22;14342;50.960;13.880;2022-08-03T03:39:25;20.40;99.90
26745;DHT22;14342;50.960;13.880;2022-08-03T03:40:26;20.40;99.90
26745;DHT22;14342;50.960;13.880;2022-08-03T03:41:28;20.30;99.90
26745;DHT22;14342;50.960;13.880;2022-08-03T03:42:28;20.30;99.90
26745;DHT22;14342;50.960;13.880;2022-08-03T03:43:30;20.30;99.90
26745;DHT22;14342;50.960;13.880;2022-08-03T03:44:31;19.90;99.90
26745;DHT22;14342;50.960;13.880;2022-08-03T03:45:33;20.20;99.90
26745;DHT22;14342;50.960;13.880;2022-08-03T03:46:34;20.20;99.90
26745;DHT22;14342;50.960;13.880;2022-08-03T03:47:35;20.10;99.90
26745;DHT22;14342;50.960;13.880;2022-08-03T03:48:36;20.10;99.90
26745;DHT22;14342;50.960;13.880;2022-08-03T03:49:40;19.80;99.90
26745;DHT22;14342;50.960;13.880;2022-08-03T03:50:42;20.10;99.90
26745;DHT22;14342;50.960;13.880;2022-08-03T03:51:44;20.10;99.90
26745;DHT22;14342;50.960;13.880;2022-08-03T03:52:44;20.10;99.90
26745;DHT22;14342;50.960;13.880;2022-08-03T03:53:55;20.30;99.90
26745;DHT22;14342;50.960;13.880;2022-08-03T03:54:56;20.20;99.90
26745;DHT22;14342;50.960;13.880;2022-08-03T03:55:58;20.10;99.90
26745;DHT22;14342;50.960;13.880;2022-08-03T03:57:00;20.10;99.90
26745;DHT22;14342;50.960;13.880;2022-08-03T03:58:01;20.10;99.90
26745;DHT22;14342;50.960;13.880;2022-08-03T03:59:04;20.10;99.90
26745;DHT22;14342;50.960;13.880;2022-08-03T04:00:05;20.10;99.90
26745;DHT22;14342;50.960;13.880;2022-08-03T04:01:07;20.10;99.90
26745;DHT22;14342;50.960;13.880;2022-08-03T04:02:09;20.00;99.90
26745;DHT22;14342;50.960;13.880;2022-08-03T04:03:10;20.00;99.90
26745;DHT22;14342;50.960;13.880;2022-08-03T04:04:12;20.00;99.90
26745;DHT22;14342;50.960;13.880;2022-08-03T04:05:32;20.00;99.90
26745;DHT22;14342;50.960;13.880;2022-08-03T04:06:52;20.00;99.90
26745;DHT22;14342;50.960;13.880;2022-08-03T04:08:14;20.00;99.90
26745;DHT22;14342;50.960;13.880;2022-08-03T04:09:34;20.00;99.90
26745;DHT22;14342;50.960;13.880;2022-08-03T04:10:55;20.00;99.90
26745;DHT22;14342;50.960;13.880;2022-08-03T04:12:01;20.00;99.90
26745;DHT22;14342;50.960;13.880;2022-08-03T04:13:02;19.90;99.90
26745;DHT22;14342;50.960;13.880;2022-08-03T04:14:08;19.90;99.90
26745;DHT22;14342;50.960;13.880;2022-08-03T04:15:09;19.90;99.90
26745;DHT22;14342;50.960;13.880;2022-08-03T04:16:14;19.90;99.90
26745;DHT22;14342;50.960;13.880;2022-08-03T04:17:15;19.80;99.90
26745;DHT22;14342;50.960;13.880;2022-08-03T04:18:18;19.90;99.90
26745;DHT22;14342;50.960;13.880;2022-08-03T04:19:21;19.90;99.90
26745;DHT22;14342;50.960;13.880;2022-08-03T04:20:25;19.50;99.90
26745;DHT22;14342;50.960;13.880;2022-08-03T04:21:28;19.90;99.90
26745;DHT22;14342;50.960;13.880;2022-08-03T04:22:30;20.00;99.90
26745;DHT22;14342;50.960;13.880;2022-08-03T04:23:32;20.10;99.90
26745;DHT22;14342;50.960;13.880;2022-08-03T04:24:49;20.10;99.90
26745;DHT22;14342;50.960;13.880;2022-08-03T04:25:51;20.20;99.90
26745;DHT22;14342;50.960;13.880;2022-08-03T04:26:54;20.20;99.90
26745;DHT22;14342;50.960;13.880;2022-08-03T04:27:55;20.30;99.90
26745;DHT22;14342;50.960;13.880;2022-08-03T04:28:58;20.30;99.90
26745;DHT22;14342;50.960;13.880;2022-08-03T04:29:59;20.40;99.90
26745;DHT22;14342;50.960;13.880;2022-08-03T04:31:02;20.40;99.90
26745;DHT22;14342;50.960;13.880;2022-08-03T04:32:04;20.40;99.90
26745;DHT22;14342;50.960;13.880;2022-08-03T04:33:05;20.40;99.90
26745;DHT22;14342;50.960;13.880;2022-08-03T04:34:07;20.40;99.90
26745;DHT22;14342;50.960;13.880;2022-08-03T04:35:09;20.40;99.90
26745;DHT22;14342;50.960;13.880;2022-08-03T04:36:11;20.50;99.90
26745;DHT22;14342;50.960;13.880;2022-08-03T04:37:18;20.50;99.90
26745;DHT22;14342;50.960;13.880;2022-08-03T04:38:23;20.50;99.90
26745;DHT22;14342;50.960;13.880;2022-08-03T04:39:25;20.50;99.90
26745;DHT22;14342;50.960;13.880;2022-08-03T04:40:29;20.50;99.90
26745;DHT22;14342;50.960;13.880;2022-08-03T04:41:30;20.60;99.90
26745;DHT22;14342;50.960;13.880;2022-08-03T04:42:32;20.60;99.90
26745;DHT22;14342;50.960;13.880;2022-08-03T04:43:33;20.60;99.90
26745;DHT22;14342;50.960;13.880;2022-08-03T04:44:35;20.60;99.90
26745;DHT22;14342;50.960;13.880;2022-08-03T04:45:36;20.60;99.90
26745;DHT22;14342;50.960;13.880;2022-08-03T04:46:39;20.30;99.90
26745;DHT22;14342;50.960;13.880;2022-08-03T04:47:40;20.70;99.90
26745;DHT22;14342;50.960;13.880;2022-08-03T04:48:41;20.70;99.90
26745;DHT22;14342;50.960;13.880;2022-08-03T04:49:44;20.50;99.90
26745;DHT22;14342;50.960;13.880;2022-08-03T04:50:45;20.90;99.90
26745;DHT22;14342;50.960;13.880;2022-08-03T04:51:46;20.80;99.90
26745;DHT22;14342;50.960;13.880;2022-08-03T04:52:48;20.90;99.90
26745;DHT22;14342;50.960;13.880;2022-08-03T04:53:50;20.90;99.90
26745;DHT22;14342;50.960;13.880;2022-08-03T04:54:51;20.80;99.90
26745;DHT22;14342;50.960;13.880;2022-08-03T04:55:52;20.90;99.90
26745;DHT22;14342;50.960;13.880;2022-08-03T04:56:53;20.90;99.90
26745;DHT22;14342;50.960;13.880;2022-08-03T04:57:54;20.80;99.90
26745;DHT22;14342;50.960;13.880;2022-08-03T04:58:55;20.60;99.90
26745;DHT22;14342;50.960;13.880;2022-08-03T04:59:57;20.50;99.90
26745;DHT22;14342;50.960;13.880;2022-08-03T05:00:57;20.50;99.90
26745;DHT22;14342;50.960;13.880;2022-08-03T05:01:59;20.40;99.90
26745;DHT22;14342;50.960;13.880;2022-08-03T05:03:00;20.50;99.90
26745;DHT22;14342;50.960;13.880;2022-08-03T05:04:01;20.50;99.90
26745;DHT22;14342;50.960;13.880;2022-08-03T05:05:02;20.60;99.90
26745;DHT22;14342;50.960;13.880;2022-08-03T05:06:03;20.60;99.90
26745;DHT22;14342;50.960;13.880;2022-08-03T05:07:04;20.70;99.90
26745;DHT22;14342;50.960;13.880;2022-08-03T05:08:07;20.80;99.90
26745;DHT22;14342;50.960;13.880;2022-08-03T05:09:07;20.90;99.90
26745;DHT22;14342;50.960;13.880;2022-08-03T05:10:09;20.80;99.90
26745;DHT22;14342;50.960;13.880;2022-08-03T05:11:10;20.80;99.90
26745;DHT22;14342;50.960;13.880;2022-08-03T05:12:12;20.90;99.90
26745;DHT22;14342;50.960;13.880;2022-08-03T05:13:12;20.90;99.90
26745;DHT22;14342;50.960;13.880;2022-08-03T05:14:14;20.90;99.90
26745;DHT22;14342;50.960;13.880;2022-08-03T05:15:14;20.90;99.90
26745;DHT22;14342;50.960;13.880;2022-08-03T05:16:16;20.90;99.90
26745;DHT22;14342;50.960;13.880;2022-08-03T05:17:17;20.70;99.90
26745;DHT22;14342;50.960;13.880;2022-08-03T05:18:18;21.00;99.90
26745;DHT22;14342;50.960;13.880;2022-08-03T05:19:20;21.00;99.90
26745;DHT22;14342;50.960;13.880;2022-08-03T05:20:20;21.10;99.90
26745;DHT22;14342;50.960;13.880;2022-08-03T05:21:22;21.10;99.90
26745;DHT22;14342;50.960;13.880;2022-08-03T05:22:23;21.20;99.90
26745;DHT22;14342;50.960;13.880;2022-08-03T05:23:26;21.20;99.90
26745;DHT22;14342;50.960;13.880;2022-08-03T05:24:26;21.20;99.90
26745;DHT22;14342;50.960;13.880;2022-08-03T05:25:28;21.20;99.90
26745;DHT22;14342;50.960;13.880;2022-08-03T05:26:28;21.20;99.90
26745;DHT22;14342;50.960;13.880;2022-08-03T05:27:30;21.20;99.90
26745;DHT22;14342;50.960;13.880;2022-08-03T05:28:31;21.20;99.90
26745;DHT22;14342;50.960;13.880;2022-08-03T05:29:32;21.20;99.90
26745;DHT22;14342;50.960;13.880;2022-08-03T05:30:33;21.20;99.90
26745;DHT22;14342;50.960;13.880;2022-08-03T05:31:34;21.10;99.90
26745;DHT22;14342;50.960;13.880;2022-08-03T05:32:35;21.20;99.90
26745;DHT22;14342;50.960;13.880;2022-08-03T05:33:36;21.20;99.90
26745;DHT22;14342;50.960;13.880;2022-08-03T05:34:37;21.20;99.90
26745;DHT22;14342;50.960;13.880;2022-08-03T05:35:39;21.30;99.90
26745;DHT22;14342;50.960;13.880;2022-08-03T05:36:39;21.20;99.90
26745;DHT22;14342;50.960;13.880;2022-08-03T05:37:41;21.40;99.90
26745;DHT22;14342;50.960;13.880;2022-08-03T05:38:43;21.40;99.90
26745;DHT22;14342;50.960;13.880;2022-08-03T05:39:44;21.60;99.90
26745;DHT22;14342;50.960;13.880;2022-08-03T05:40:45;21.60;99.90
26745;DHT22;14342;50.960;13.880;2022-08-03T05:41:46;21.60;99.90
26745;DHT22;14342;50.960;13.880;2022-08-03T05:42:47;21.60;99.90
26745;DHT22;14342;50.960;13.880;2022-08-03T05:43:49;21.70;99.90
26745;DHT22;14342;50.960;13.880;2022-08-03T05:44:49;21.70;99.90
26745;DHT22;14342;50.960;13.880;2022-08-03T05:45:51;21.70;99.90
26745;DHT22;14342;50.960;13.880;2022-08-03T05:46:52;21.80;99.90
26745;DHT22;14342;50.960;13.880;2022-08-03T05:47:53;21.80;99.90
26745;DHT22;14342;50.960;13.880;2022-08-03T05:48:54;21.80;99.90
26745;DHT22;14342;50.960;13.880;2022-08-03T05:49:55;21.90;99.90
26745;DHT22;14342;50.960;13.880;2022-08-03T05:50:58;21.90;99.90
26745;DHT22;14342;50.960;13.880;2022-08-03T05:51:59;22.00;99.90
26745;DHT22;14342;50.960;13.880;2022-08-03T05:53:01;22.00;99.90
26745;DHT22;14342;50.960;13.880;2022-08-03T05:54:03;22.00;99.90
26745;DHT22;14342;50.960;13.880;2022-08-03T05:55:05;22.10;99.90
26745;DHT22;14342;50.960;13.880;2022-08-03T05:56:06;22.10;99.90
26745;DHT22;14342;50.960;13.880;2022-08-03T05:57:08;22.20;99.90
26745;DHT22;14342;50.960;13.880;2022-08-03T05:58:09;22.20;99.90
26745;DHT22;14342;50.960;13.880;2022-08-03T05:59:10;22.30;99.90
26745;DHT22;14342;50.960;13.880;2022-08-03T06:00:11;22.40;99.90
26745;DHT22;14342;50.960;13.880;2022-08-03T06:01:13;22.40;99.90
26745;DHT22;14342;50.960;13.880;2022-08-03T06:02:13;22.50;99.90
26745;DHT22;14342;50.960;13.880;2022-08-03T06:03:15;22.50;99.90
26745;DHT22;14342;50.960;13.880;2022-08-03T06:04:16;22.50;99.90
26745;DHT22;14342;50.960;13.880;2022-08-03T06:05:17;22.60;99.90
26745;DHT22;14342;50.960;13.880;2022-08-03T06:06:19;22.60;99.90
26745;DHT22;14342;50.960;13.880;2022-08-03T06:07:19;22.60;99.90
26745;DHT22;14342;50.960;13.880;2022-08-03T06:08:21;22.60;99.90
26745;DHT22;14342;50.960;13.880;2022-08-03T06:09:23;22.70;99.90
26745;DHT22;14342;50.960;13.880;2022-08-03T06:10:25;22.70;99.90
26745;DHT22;14342;50.960;13.880;2022-08-03T06:11:25;22.80;99.90
26745;DHT22;14342;50.960;13.880;2022-08-03T06:12:27;22.80;99.90
26745;DHT22;14342;50.960;13.880;2022-08-03T06:13:27;22.80;99.90
26745;DHT22;14342;50.960;13.880;2022-08-03T06:14:29;22.90;99.90
26745;DHT22;14342;50.960;13.880;2022-08-03T06:15:30;22.90;99.90
26745;DHT22;14342;50.960;13.880;2022-08-03T06:16:32;22.90;99.90
26745;DHT22;14342;50.960;13.880;2022-08-03T06:17:42;23.00;99.90
26745;DHT22;14342;50.960;13.880;2022-08-03T06:18:43;23.00;99.90
26745;DHT22;14342;50.960;13.880;2022-08-03T06:19:45;23.10;99.90
26745;DHT22;14342;50.960;13.880;2022-08-03T06:20:45;23.10;99.90
26745;DHT22;14342;50.960;13.880;2022-08-03T06:21:47;23.10;99.90
26745;DHT22;14342;50.960;13.880;2022-08-03T06:22:49;23.10;99.90
26745;DHT22;14342;50.960;13.880;2022-08-03T06:23:49;23.20;99.90
26745;DHT22;14342;50.960;13.880;2022-08-03T06:24:52;23.30;99.90
26745;DHT22;14342;50.960;13.880;2022-08-03T06:25:53;23.40;99.90
26745;DHT22;14342;50.960;13.880;2022-08-03T06:26:54;23.50;99.90